sensor_id;sensor_type;location;lat;lon;timestamp;temperature;humidity
71868;DHT22;59738;48.324;14.230;2022-07-04T00:02:00;21.80;53.00
71868;DHT22;59738;48.324;14.230;2022-07-04T00:04:28;21.70;52.70
71868;DHT22;59738;48.324;14.230;2022-07-04T00:06:56;21.90;52.00
71868;DHT22;59738;48.324;14.230;2022-07-04T00:09:25;22.00;50.60
71868;DHT22;59738;48.324;14.230;2022-07-04T00:11:52;22.20;49.80
71868;DHT22;59738;48.324;14.230;2022-07-04T00:14:20;22.10;50.30
71868;DHT22;59738;48.324;14.230;2022-07-04T00:16:48;22.10;50.20
71868;DHT22;59738;48.324;14.230;2022-07-04T00:19:15;21.90;50.80
71868;DHT22;59738;48.324;14.230;2022-07-04T00:21:43;21.80;51.50
71868;DHT22;59738;48.324;14.230;2022-07-04T00:24:12;21.60;52.00
71868;DHT22;59738;48.324;14.230;2022-07-04T00:26:41;21.60;52.20
71868;DHT22;59738;48.324;14.230;2022-07-04T00:29:08;21.40;54.20
71868;DHT22;59738;48.324;14.230;2022-07-04T00:31:36;21.40;54.50
71868;DHT22;59738;48.324;14.230;2022-07-04T00:34:04;21.40;54.60
71868;DHT22;59738;48.324;14.230;2022-07-04T00:36:32;21.50;53.80
71868;DHT22;59738;48.324;14.230;2022-07-04T00:39:00;21.50;53.60
71868;DHT22;59738;48.324;14.230;2022-07-04T00:41:27;21.60;53.40
71868;DHT22;59738;48.324;14.230;2022-07-04T00:44:07;21.50;54.40
71868;DHT22;59738;48.324;14.230;2022-07-04T00:46:35;21.30;55.50
71868;DHT22;59738;48.324;14.230;2022-07-04T00:49:03;21.10;56.30
71868;DHT22;59738;48.324;14.230;2022-07-04T00:51:32;21.00;56.10
71868;DHT22;59738;48.324;14.230;2022-07-04T00:54:02;21.00;57.10
71868;DHT22;59738;48.324;14.230;2022-07-04T00:56:35;20.90;57.90
71868;DHT22;59738;48.324;14.230;2022-07-04T00:59:04;20.90;57.60
71868;DHT22;59738;48.324;14.230;2022-07-04T01:01:34;21.10;56.60
71868;DHT22;59738;48.324;14.230;2022-07-04T01:04:02;21.20;55.90
71868;DHT22;59738;48.324;14.230;2022-07-04T01:06:30;21.30;55.40
71868;DHT22;59738;48.324;14.230;2022-07-04T01:08:59;21.30;55.80
71868;DHT22;59738;48.324;14.230;2022-07-04T01:11:27;21.30;56.00
71868;DHT22;59738;48.324;14.230;2022-07-04T01:13:55;21.30;56.30
71868;DHT22;59738;48.324;14.230;2022-07-04T01:16:24;21.20;57.70
71868;DHT22;59738;48.324;14.230;2022-07-04T01:18:54;20.90;59.10
71868;DHT22;59738;48.324;14.230;2022-07-04T01:21:23;20.80;59.00
71868;DHT22;59738;48.324;14.230;2022-07-04T01:23:51;20.90;58.90
71868;DHT22;59738;48.324;14.230;2022-07-04T01:26:19;20.80;60.90
71868;DHT22;59738;48.324;14.230;2022-07-04T01:28:47;20.60;63.20
71868;DHT22;59738;48.324;14.230;2022-07-04T01:31:15;20.40;65.70
71868;DHT22;59738;48.324;14.230;2022-07-04T01:33:43;20.10;67.80
71868;DHT22;59738;48.324;14.230;2022-07-04T01:36:10;19.90;69.80
71868;DHT22;59738;48.324;14.230;2022-07-04T01:38:40;19.80;72.40
71868;DHT22;59738;48.324;14.230;2022-07-04T01:41:07;19.50;77.70
71868;DHT22;59738;48.324;14.230;2022-07-04T01:43:35;19.30;82.10
71868;DHT22;59738;48.324;14.230;2022-07-04T01:46:03;19.20;83.00
71868;DHT22;59738;48.324;14.230;2022-07-04T01:48:30;19.30;82.10
71868;DHT22;59738;48.324;14.230;2022-07-04T01:50:58;19.50;81.20
71868;DHT22;59738;48.324;14.230;2022-07-04T01:53:26;19.50;79.50
71868;DHT22;59738;48.324;14.230;2022-07-04T01:55:55;19.50;79.20
71868;DHT22;59738;48.324;14.230;2022-07-04T01:58:23;19.50;78.30
71868;DHT22;59738;48.324;14.230;2022-07-04T02:00:50;19.50;79.30
71868;DHT22;59738;48.324;14.230;2022-07-04T02:03:36;19.40;81.00
71868;DHT22;59738;48.324;14.230;2022-07-04T02:06:04;19.30;80.90
71868;DHT22;59738;48.324;14.230;2022-07-04T02:08:31;19.30;79.80
71868;DHT22;59738;48.324;14.230;2022-07-04T02:11:14;19.40;80.80
71868;DHT22;59738;48.324;14.230;2022-07-04T02:13:42;19.30;80.50
71868;DHT22;59738;48.324;14.230;2022-07-04T02:16:09;19.30;80.70
71868;DHT22;59738;48.324;14.230;2022-07-04T02:18:36;19.30;83.10
71868;DHT22;59738;48.324;14.230;2022-07-04T02:21:04;19.30;79.80
71868;DHT22;59738;48.324;14.230;2022-07-04T02:23:32;19.40;81.70
71868;DHT22;59738;48.324;14.230;2022-07-04T02:25:59;19.20;84.90
71868;DHT22;59738;48.324;14.230;2022-07-04T02:28:28;19.20;86.90
71868;DHT22;59738;48.324;14.230;2022-07-04T02:30:56;19.20;85.70
71868;DHT22;59738;48.324;14.230;2022-07-04T02:33:24;19.30;84.40
71868;DHT22;59738;48.324;14.230;2022-07-04T02:35:51;19.40;82.50
71868;DHT22;59738;48.324;14.230;2022-07-04T02:38:19;19.50;84.30
71868;DHT22;59738;48.324;14.230;2022-07-04T02:40:47;19.50;84.00
71868;DHT22;59738;48.324;14.230;2022-07-04T02:43:14;19.50;83.80
71868;DHT22;59738;48.324;14.230;2022-07-04T02:45:45;19.50;86.60
71868;DHT22;59738;48.324;14.230;2022-07-04T02:48:12;19.60;87.20
71868;DHT22;59738;48.324;14.230;2022-07-04T02:50:40;19.60;88.90
71868;DHT22;59738;48.324;14.230;2022-07-04T02:53:08;19.60;83.50
71868;DHT22;59738;48.324;14.230;2022-07-04T02:55:36;19.60;88.50
71868;DHT22;59738;48.324;14.230;2022-07-04T02:58:03;19.70;87.80
71868;DHT22;59738;48.324;14.230;2022-07-04T03:00:31;19.70;88.80
71868;DHT22;59738;48.324;14.230;2022-07-04T03:03:00;19.70;88.30
71868;DHT22;59738;48.324;14.230;2022-07-04T03:05:28;19.70;84.30
71868;DHT22;59738;48.324;14.230;2022-07-04T03:07:58;19.80;82.30
71868;DHT22;59738;48.324;14.230;2022-07-04T03:10:26;19.80;83.70
71868;DHT22;59738;48.324;14.230;2022-07-04T03:12:54;19.80;81.70
71868;DHT22;59738;48.324;14.230;2022-07-04T03:15:21;19.90;78.50
71868;DHT22;59738;48.324;14.230;2022-07-04T03:17:49;20.00;79.20
71868;DHT22;59738;48.324;14.230;2022-07-04T03:20:18;20.00;80.50
71868;DHT22;59738;48.324;14.230;2022-07-04T03:22:46;20.00;82.10
71868;DHT22;59738;48.324;14.230;2022-07-04T03:25:14;20.10;84.30
71868;DHT22;59738;48.324;14.230;2022-07-04T03:27:41;20.20;83.00
71868;DHT22;59738;48.324;14.230;2022-07-04T03:30:10;20.20;83.60
71868;DHT22;59738;48.324;14.230;2022-07-04T03:32:39;20.10;86.50
71868;DHT22;59738;48.324;14.230;2022-07-04T03:35:07;20.10;85.80
71868;DHT22;59738;48.324;14.230;2022-07-04T03:37:36;20.20;83.70
71868;DHT22;59738;48.324;14.230;2022-07-04T03:40:05;20.10;84.10
71868;DHT22;59738;48.324;14.230;2022-07-04T03:42:33;19.90;81.40
71868;DHT22;59738;48.324;14.230;2022-07-04T03:45:00;19.60;78.70
71868;DHT22;59738;48.324;14.230;2022-07-04T03:47:29;19.30;82.50
71868;DHT22;59738;48.324;14.230;2022-07-04T03:49:57;19.10;86.80
71868;DHT22;59738;48.324;14.230;2022-07-04T03:52:25;18.90;90.40
71868;DHT22;59738;48.324;14.230;2022-07-04T03:54:54;18.70;92.80
71868;DHT22;59738;48.324;14.230;2022-07-04T03:57:22;18.50;94.90
71868;DHT22;59738;48.324;14.230;2022-07-04T03:59:49;18.50;95.50
71868;DHT22;59738;48.324;14.230;2022-07-04T04:02:17;18.40;95.70
71868;DHT22;59738;48.324;14.230;2022-07-04T04:04:45;18.40;95.90
71868;DHT22;59738;48.324;14.230;2022-07-04T04:07:30;18.40;96.10
71868;DHT22;59738;48.324;14.230;2022-07-04T04:09:59;18.50;94.70
71868;DHT22;59738;48.324;14.230;2022-07-04T04:12:27;18.60;94.30
71868;DHT22;59738;48.324;14.230;2022-07-04T04:14:54;18.70;94.80
71868;DHT22;59738;48.324;14.230;2022-07-04T04:17:22;18.70;94.80
71868;DHT22;59738;48.324;14.230;2022-07-04T04:19:50;18.70;94.20
71868;DHT22;59738;48.324;14.230;2022-07-04T04:22:17;18.80;93.80
71868;DHT22;59738;48.324;14.230;2022-07-04T04:24:45;18.90;93.50
71868;DHT22;59738;48.324;14.230;2022-07-04T04:27:14;19.00;93.20
71868;DHT22;59738;48.324;14.230;2022-07-04T04:29:42;19.10;91.80
71868;DHT22;59738;48.324;14.230;2022-07-04T04:32:10;19.20;92.30
71868;DHT22;59738;48.324;14.230;2022-07-04T04:34:37;19.30;92.20
71868;DHT22;59738;48.324;14.230;2022-07-04T04:37:05;19.40;90.70
71868;DHT22;59738;48.324;14.230;2022-07-04T04:39:33;19.60;90.90
71868;DHT22;59738;48.324;14.230;2022-07-04T04:42:00;19.70;90.90
71868;DHT22;59738;48.324;14.230;2022-07-04T04:44:29;19.70;90.60
71868;DHT22;59738;48.324;14.230;2022-07-04T04:46:57;19.70;89.30
71868;DHT22;59738;48.324;14.230;2022-07-04T04:49:25;19.80;89.20
71868;DHT22;59738;48.324;14.230;2022-07-04T04:51:52;19.80;89.10
71868;DHT22;59738;48.324;14.230;2022-07-04T04:54:20;19.80;88.50
71868;DHT22;59738;48.324;14.230;2022-07-04T04:56:48;19.90;87.60
71868;DHT22;59738;48.324;14.230;2022-07-04T04:59:16;19.90;87.80
71868;DHT22;59738;48.324;14.230;2022-07-04T05:01:47;19.90;87.40
71868;DHT22;59738;48.324;14.230;2022-07-04T05:04:15;20.00;86.20
71868;DHT22;59738;48.324;14.230;2022-07-04T05:06:43;20.00;85.20
71868;DHT22;59738;48.324;14.230;2022-07-04T05:09:10;20.10;82.30
71868;DHT22;59738;48.324;14.230;2022-07-04T05:11:39;20.20;81.40
71868;DHT22;59738;48.324;14.230;2022-07-04T05:14:09;20.20;80.60
71868;DHT22;59738;48.324;14.230;2022-07-04T05:16:37;20.20;80.00
71868;DHT22;59738;48.324;14.230;2022-07-04T05:19:06;20.20;77.90
71868;DHT22;59738;48.324;14.230;2022-07-04T05:21:34;20.30;78.60
71868;DHT22;59738;48.324;14.230;2022-07-04T05:24:01;20.20;78.50
71868;DHT22;59738;48.324;14.230;2022-07-04T05:26:29;20.20;77.30
71868;DHT22;59738;48.324;14.230;2022-07-04T05:28:57;20.30;77.90
71868;DHT22;59738;48.324;14.230;2022-07-04T05:31:24;20.30;78.20
71868;DHT22;59738;48.324;14.230;2022-07-04T05:33:53;20.30;76.30
71868;DHT22;59738;48.324;14.230;2022-07-04T05:36:23;20.30;77.20
71868;DHT22;59738;48.324;14.230;2022-07-04T05:38:51;20.30;79.20
71868;DHT22;59738;48.324;14.230;2022-07-04T05:41:19;20.30;78.70
71868;DHT22;59738;48.324;14.230;2022-07-04T05:43:46;20.20;80.30
71868;DHT22;59738;48.324;14.230;2022-07-04T05:46:14;20.20;80.40
71868;DHT22;59738;48.324;14.230;2022-07-04T05:48:42;20.10;80.20
71868;DHT22;59738;48.324;14.230;2022-07-04T05:51:10;20.10;78.80
71868;DHT22;59738;48.324;14.230;2022-07-04T05:53:39;20.20;78.10
71868;DHT22;59738;48.324;14.230;2022-07-04T05:56:07;20.20;78.30
71868;DHT22;59738;48.324;14.230;2022-07-04T05:58:35;20.10;77.60
71868;DHT22;59738;48.324;14.230;2022-07-04T06:01:02;20.20;78.00
71868;DHT22;59738;48.324;14.230;2022-07-04T06:03:32;20.10;79.30
71868;DHT22;59738;48.324;14.230;2022-07-04T06:05:59;20.10;81.90
71868;DHT22;59738;48.324;14.230;2022-07-04T06:08:27;20.00;85.20
71868;DHT22;59738;48.324;14.230;2022-07-04T06:10:56;20.00;86.90
71868;DHT22;59738;48.324;14.230;2022-07-04T06:13:25;19.90;88.80
71868;DHT22;59738;48.324;14.230;2022-07-04T06:15:53;19.90;90.40
71868;DHT22;59738;48.324;14.230;2022-07-04T06:18:21;19.90;89.60
71868;DHT22;59738;48.324;14.230;2022-07-04T06:20:50;19.80;92.20
71868;DHT22;59738;48.324;14.230;2022-07-04T06:23:18;19.80;90.20
71868;DHT22;59738;48.324;14.230;2022-07-04T06:25:46;19.80;88.80
71868;DHT22;59738;48.324;14.230;2022-07-04T06:28:24;19.60;94.60
71868;DHT22;59738;48.324;14.230;2022-07-04T06:30:54;19.50;95.90
71868;DHT22;59738;48.324;14.230;2022-07-04T06:33:55;19.50;97.60
71868;DHT22;59738;48.324;14.230;2022-07-04T06:36:42;19.50;99.10
71868;DHT22;59738;48.324;14.230;2022-07-04T06:39:10;19.60;99.10
71868;DHT22;59738;48.324;14.230;2022-07-04T06:41:38;19.60;99.30
71868;DHT22;59738;48.324;14.230;2022-07-04T06:44:07;19.70;99.00
71868;DHT22;59738;48.324;14.230;2022-07-04T06:46:34;19.80;95.70
71868;DHT22;59738;48.324;14.230;2022-07-04T06:49:02;19.90;98.30
71868;DHT22;59738;48.324;14.230;2022-07-04T06:51:30;19.50;99.20
71868;DHT22;59738;48.324;14.230;2022-07-04T06:53:58;19.30;99.90
71868;DHT22;59738;48.324;14.230;2022-07-04T06:56:28;19.30;99.90
71868;DHT22;59738;48.324;14.230;2022-07-04T06:58:55;19.40;99.90
71868;DHT22;59738;48.324;14.230;2022-07-04T07:01:25;19.40;99.90
71868;DHT22;59738;48.324;14.230;2022-07-04T07:03:53;19.70;99.90
71868;DHT22;59738;48.324;14.230;2022-07-04T07:06:21;20.00;99.90
71868;DHT22;59738;48.324;14.230;2022-07-04T07:08:50;20.00;93.70
71868;DHT22;59738;48.324;14.230;2022-07-04T07:11:18;20.10;95.10
71868;DHT22;59738;48.324;14.230;2022-07-04T07:13:48;20.20;94.70
71868;DHT22;59738;48.324;14.230;2022-07-04T07:16:17;20.50;95.30
71868;DHT22;59738;48.324;14.230;2022-07-04T07:18:47;21.10;88.60
71868;DHT22;59738;48.324;14.230;2022-07-04T07:21:15;21.70;79.90
71868;DHT22;59738;48.324;14.230;2022-07-04T07:23:43;22.10;75.00
71868;DHT22;59738;48.324;14.230;2022-07-04T07:26:12;22.30;70.60
71868;DHT22;59738;48.324;14.230;2022-07-04T07:28:39;22.40;71.60
71868;DHT22;59738;48.324;14.230;2022-07-04T07:31:08;22.80;69.00
71868;DHT22;59738;48.324;14.230;2022-07-04T07:33:37;23.40;60.20
71868;DHT22;59738;48.324;14.230;2022-07-04T07:36:07;23.80;65.20
71868;DHT22;59738;48.324;14.230;2022-07-04T07:38:35;24.00;56.00
71868;DHT22;59738;48.324;14.230;2022-07-04T07:41:02;24.00;54.20
71868;DHT22;59738;48.324;14.230;2022-07-04T07:43:31;24.10;54.90
71868;DHT22;59738;48.324;14.230;2022-07-04T07:46:00;24.10;50.80
71868;DHT22;59738;48.324;14.230;2022-07-04T07:48:28;24.30;53.40
71868;DHT22;59738;48.324;14.230;2022-07-04T07:50:55;24.70;55.40
71868;DHT22;59738;48.324;14.230;2022-07-04T07:53:25;24.80;55.60
71868;DHT22;59738;48.324;14.230;2022-07-04T07:55:52;24.70;53.30
71868;DHT22;59738;48.324;14.230;2022-07-04T07:58:20;24.80;53.70
71868;DHT22;59738;48.324;14.230;2022-07-04T08:00:48;25.00;52.40
71868;DHT22;59738;48.324;14.230;2022-07-04T08:03:16;25.30;50.80
71868;DHT22;59738;48.324;14.230;2022-07-04T08:06:04;25.30;51.90
71868;DHT22;59738;48.324;14.230;2022-07-04T08:08:33;25.80;52.90
71868;DHT22;59738;48.324;14.230;2022-07-04T08:11:18;26.20;50.50
71868;DHT22;59738;48.324;14.230;2022-07-04T08:13:47;26.00;50.40
71868;DHT22;59738;48.324;14.230;2022-07-04T08:16:17;25.90;46.10
71868;DHT22;59738;48.324;14.230;2022-07-04T08:18:47;25.60;59.30
71868;DHT22;59738;48.324;14.230;2022-07-04T08:21:14;25.50;53.50
71868;DHT22;59738;48.324;14.230;2022-07-04T08:23:46;25.60;55.50
71868;DHT22;59738;48.324;14.230;2022-07-04T08:26:14;25.70;53.10
71868;DHT22;59738;48.324;14.230;2022-07-04T08:28:43;26.30;53.90
71868;DHT22;59738;48.324;14.230;2022-07-04T08:31:11;26.70;50.40
71868;DHT22;59738;48.324;14.230;2022-07-04T08:33:38;26.70;48.40
71868;DHT22;59738;48.324;14.230;2022-07-04T08:36:06;26.70;48.00
71868;DHT22;59738;48.324;14.230;2022-07-04T08:38:34;26.80;46.00
71868;DHT22;59738;48.324;14.230;2022-07-04T08:41:03;26.90;45.40
71868;DHT22;59738;48.324;14.230;2022-07-04T08:43:32;26.50;47.40
71868;DHT22;59738;48.324;14.230;2022-07-04T08:46:04;26.80;44.70
71868;DHT22;59738;48.324;14.230;2022-07-04T08:48:32;26.40;44.90
71868;DHT22;59738;48.324;14.230;2022-07-04T08:51:09;27.20;42.70
71868;DHT22;59738;48.324;14.230;2022-07-04T08:53:38;27.20;41.80
71868;DHT22;59738;48.324;14.230;2022-07-04T08:56:08;27.70;40.80
71868;DHT22;59738;48.324;14.230;2022-07-04T08:58:56;27.60;41.30
71868;DHT22;59738;48.324;14.230;2022-07-04T09:01:26;27.70;41.70
71868;DHT22;59738;48.324;14.230;2022-07-04T09:03:55;27.60;41.50
71868;DHT22;59738;48.324;14.230;2022-07-04T09:06:24;27.50;42.20
71868;DHT22;59738;48.324;14.230;2022-07-04T09:08:53;26.70;44.60
71868;DHT22;59738;48.324;14.230;2022-07-04T09:11:25;26.90;46.10
71868;DHT22;59738;48.324;14.230;2022-07-04T09:13:52;26.80;45.80
71868;DHT22;59738;48.324;14.230;2022-07-04T09:16:20;26.70;46.30
71868;DHT22;59738;48.324;14.230;2022-07-04T09:18:48;27.30;45.90
71868;DHT22;59738;48.324;14.230;2022-07-04T09:21:15;27.90;43.40
71868;DHT22;59738;48.324;14.230;2022-07-04T09:23:43;28.10;44.40
71868;DHT22;59738;48.324;14.230;2022-07-04T09:26:13;28.10;40.50
71868;DHT22;59738;48.324;14.230;2022-07-04T09:28:44;28.10;40.10
71868;DHT22;59738;48.324;14.230;2022-07-04T09:31:17;28.10;41.30
71868;DHT22;59738;48.324;14.230;2022-07-04T09:34:00;28.20;40.80
71868;DHT22;59738;48.324;14.230;2022-07-04T09:36:33;28.60;39.80
71868;DHT22;59738;48.324;14.230;2022-07-04T09:39:07;28.50;42.10
71868;DHT22;59738;48.324;14.230;2022-07-04T09:41:53;28.40;38.60
71868;DHT22;59738;48.324;14.230;2022-07-04T09:44:25;28.60;45.10
71868;DHT22;59738;48.324;14.230;2022-07-04T09:46:53;28.90;37.60
71868;DHT22;59738;48.324;14.230;2022-07-04T09:49:21;29.40;40.30
71868;DHT22;59738;48.324;14.230;2022-07-04T09:51:50;28.90;39.30
71868;DHT22;59738;48.324;14.230;2022-07-04T09:54:26;28.90;37.00
71868;DHT22;59738;48.324;14.230;2022-07-04T09:57:00;29.30;37.10
71868;DHT22;59738;48.324;14.230;2022-07-04T09:59:30;29.00;34.90
71868;DHT22;59738;48.324;14.230;2022-07-04T10:02:07;29.10;35.10
71868;DHT22;59738;48.324;14.230;2022-07-04T10:04:46;29.80;31.60
71868;DHT22;59738;48.324;14.230;2022-07-04T10:07:34;29.10;35.10
71868;DHT22;59738;48.324;14.230;2022-07-04T10:10:29;28.90;36.10
71868;DHT22;59738;48.324;14.230;2022-07-04T10:12:59;28.90;34.10
71868;DHT22;59738;48.324;14.230;2022-07-04T10:15:30;28.60;36.10
71868;DHT22;59738;48.324;14.230;2022-07-04T10:18:01;28.80;35.60
71868;DHT22;59738;48.324;14.230;2022-07-04T10:20:29;28.90;33.60
71868;DHT22;59738;48.324;14.230;2022-07-04T10:22:59;28.80;35.60
71868;DHT22;59738;48.324;14.230;2022-07-04T10:25:27;28.40;35.20
71868;DHT22;59738;48.324;14.230;2022-07-04T10:27:55;28.40;37.50
71868;DHT22;59738;48.324;14.230;2022-07-04T10:30:26;28.00;38.50
71868;DHT22;59738;48.324;14.230;2022-07-04T10:32:59;28.00;39.40
71868;DHT22;59738;48.324;14.230;2022-07-04T10:35:46;28.20;39.40
71868;DHT22;59738;48.324;14.230;2022-07-04T10:38:14;28.00;40.50
71868;DHT22;59738;48.324;14.230;2022-07-04T10:40:45;27.90;38.20
71868;DHT22;59738;48.324;14.230;2022-07-04T10:46:25;28.30;39.60
71868;DHT22;59738;48.324;14.230;2022-07-04T10:48:56;28.70;38.80
71868;DHT22;59738;48.324;14.230;2022-07-04T10:51:38;29.40;37.40
71868;DHT22;59738;48.324;14.230;2022-07-04T10:54:08;29.60;35.50
71868;DHT22;59738;48.324;14.230;2022-07-04T10:56:53;29.30;34.60
71868;DHT22;59738;48.324;14.230;2022-07-04T10:59:23;28.90;35.50
71868;DHT22;59738;48.324;14.230;2022-07-04T11:02:20;28.80;36.30
71868;DHT22;59738;48.324;14.230;2022-07-04T11:04:54;28.40;36.70
71868;DHT22;59738;48.324;14.230;2022-07-04T11:10:20;27.80;38.40
71868;DHT22;59738;48.324;14.230;2022-07-04T11:13:22;28.30;39.60
71868;DHT22;59738;48.324;14.230;2022-07-04T11:16:04;28.80;38.00
71868;DHT22;59738;48.324;14.230;2022-07-04T11:18:44;29.30;35.70
71868;DHT22;59738;48.324;14.230;2022-07-04T11:21:29;29.50;34.90
71868;DHT22;59738;48.324;14.230;2022-07-04T11:23:58;30.00;35.30
71868;DHT22;59738;48.324;14.230;2022-07-04T11:26:27;29.90;33.10
71868;DHT22;59738;48.324;14.230;2022-07-04T11:28:56;30.00;35.80
71868;DHT22;59738;48.324;14.230;2022-07-04T11:31:37;29.50;31.70
71868;DHT22;59738;48.324;14.230;2022-07-04T11:34:06;29.20;35.20
71868;DHT22;59738;48.324;14.230;2022-07-04T11:36:37;29.20;35.60
71868;DHT22;59738;48.324;14.230;2022-07-04T11:39:13;30.00;32.90
71868;DHT22;59738;48.324;14.230;2022-07-04T11:41:48;30.40;34.00
71868;DHT22;59738;48.324;14.230;2022-07-04T11:44:39;29.70;32.60
71868;DHT22;59738;48.324;14.230;2022-07-04T11:47:37;29.20;32.90
71868;DHT22;59738;48.324;14.230;2022-07-04T11:50:08;28.90;34.80
71868;DHT22;59738;48.324;14.230;2022-07-04T11:52:45;28.80;36.50
71868;DHT22;59738;48.324;14.230;2022-07-04T11:55:16;28.50;37.40
71868;DHT22;59738;48.324;14.230;2022-07-04T11:57:45;28.20;37.50
71868;DHT22;59738;48.324;14.230;2022-07-04T12:00:17;28.30;36.60
71868;DHT22;59738;48.324;14.230;2022-07-04T12:02:48;28.10;37.70
71868;DHT22;59738;48.324;14.230;2022-07-04T12:05:21;27.90;37.00
71868;DHT22;59738;48.324;14.230;2022-07-04T12:07:59;27.70;40.40
71868;DHT22;59738;48.324;14.230;2022-07-04T12:10:29;27.70;39.80
71868;DHT22;59738;48.324;14.230;2022-07-04T12:13:01;27.60;41.10
71868;DHT22;59738;48.324;14.230;2022-07-04T12:15:38;27.50;39.40
71868;DHT22;59738;48.324;14.230;2022-07-04T12:18:15;27.30;40.70
71868;DHT22;59738;48.324;14.230;2022-07-04T12:20:44;27.50;42.70
71868;DHT22;59738;48.324;14.230;2022-07-04T12:23:18;27.50;43.00
71868;DHT22;59738;48.324;14.230;2022-07-04T12:25:48;27.40;50.50
71868;DHT22;59738;48.324;14.230;2022-07-04T12:28:17;27.30;46.20
71868;DHT22;59738;48.324;14.230;2022-07-04T12:30:50;27.20;46.80
71868;DHT22;59738;48.324;14.230;2022-07-04T12:33:20;27.20;46.20
71868;DHT22;59738;48.324;14.230;2022-07-04T12:35:51;27.10;48.00
71868;DHT22;59738;48.324;14.230;2022-07-04T12:38:25;27.10;52.50
71868;DHT22;59738;48.324;14.230;2022-07-04T12:41:05;27.00;51.40
71868;DHT22;59738;48.324;14.230;2022-07-04T12:43:49;26.30;58.90
71868;DHT22;59738;48.324;14.230;2022-07-04T12:46:30;26.30;55.20
71868;DHT22;59738;48.324;14.230;2022-07-04T12:49:00;26.10;56.50
71868;DHT22;59738;48.324;14.230;2022-07-04T12:51:30;25.80;57.00
71868;DHT22;59738;48.324;14.230;2022-07-04T12:54:07;25.90;54.70
71868;DHT22;59738;48.324;14.230;2022-07-04T12:56:37;25.80;54.80
71868;DHT22;59738;48.324;14.230;2022-07-04T12:59:08;25.70;53.50
71868;DHT22;59738;48.324;14.230;2022-07-04T13:01:37;25.60;55.60
71868;DHT22;59738;48.324;14.230;2022-07-04T13:04:09;25.50;56.60
71868;DHT22;59738;48.324;14.230;2022-07-04T13:06:39;25.50;55.40
71868;DHT22;59738;48.324;14.230;2022-07-04T13:09:08;25.40;54.00
71868;DHT22;59738;48.324;14.230;2022-07-04T13:11:36;25.40;56.10
71868;DHT22;59738;48.324;14.230;2022-07-04T13:14:22;25.60;55.50
71868;DHT22;59738;48.324;14.230;2022-07-04T13:16:49;25.40;54.70
71868;DHT22;59738;48.324;14.230;2022-07-04T13:19:17;25.10;54.10
71868;DHT22;59738;48.324;14.230;2022-07-04T13:21:45;25.20;53.20
71868;DHT22;59738;48.324;14.230;2022-07-04T13:24:15;25.30;54.60
71868;DHT22;59738;48.324;14.230;2022-07-04T13:26:43;25.30;54.60
71868;DHT22;59738;48.324;14.230;2022-07-04T13:29:11;25.20;53.20
71868;DHT22;59738;48.324;14.230;2022-07-04T13:31:38;25.20;52.40
71868;DHT22;59738;48.324;14.230;2022-07-04T13:34:06;25.20;53.30
71868;DHT22;59738;48.324;14.230;2022-07-04T13:36:34;25.20;53.90
71868;DHT22;59738;48.324;14.230;2022-07-04T13:39:03;25.30;52.90
71868;DHT22;59738;48.324;14.230;2022-07-04T13:41:33;25.20;52.70
71868;DHT22;59738;48.324;14.230;2022-07-04T13:44:02;25.10;52.20
71868;DHT22;59738;48.324;14.230;2022-07-04T13:46:30;24.90;53.30
71868;DHT22;59738;48.324;14.230;2022-07-04T13:49:01;24.90;52.40
71868;DHT22;59738;48.324;14.230;2022-07-04T13:51:29;24.90;52.80
71868;DHT22;59738;48.324;14.230;2022-07-04T13:53:57;24.80;52.90
71868;DHT22;59738;48.324;14.230;2022-07-04T13:56:25;24.70;54.90
71868;DHT22;59738;48.324;14.230;2022-07-04T13:58:54;24.70;56.20
71868;DHT22;59738;48.324;14.230;2022-07-04T14:01:22;24.80;56.50
71868;DHT22;59738;48.324;14.230;2022-07-04T14:03:50;24.60;58.80
71868;DHT22;59738;48.324;14.230;2022-07-04T14:06:18;24.60;59.00
71868;DHT22;59738;48.324;14.230;2022-07-04T14:08:46;24.70;59.30
71868;DHT22;59738;48.324;14.230;2022-07-04T14:11:14;24.60;58.20
71868;DHT22;59738;48.324;14.230;2022-07-04T14:13:42;24.50;62.30
71868;DHT22;59738;48.324;14.230;2022-07-04T14:16:11;24.70;66.50
71868;DHT22;59738;48.324;14.230;2022-07-04T14:18:38;24.60;68.90
71868;DHT22;59738;48.324;14.230;2022-07-04T14:21:06;24.60;63.60
71868;DHT22;59738;48.324;14.230;2022-07-04T14:23:34;24.50;65.90
71868;DHT22;59738;48.324;14.230;2022-07-04T14:26:13;24.60;66.10
71868;DHT22;59738;48.324;14.230;2022-07-04T14:28:42;24.60;66.20
71868;DHT22;59738;48.324;14.230;2022-07-04T14:31:14;24.60;64.60
71868;DHT22;59738;48.324;14.230;2022-07-04T14:33:43;24.40;64.50
71868;DHT22;59738;48.324;14.230;2022-07-04T14:36:13;24.50;65.40
71868;DHT22;59738;48.324;14.230;2022-07-04T14:38:41;24.60;65.70
71868;DHT22;59738;48.324;14.230;2022-07-04T14:41:08;24.60;65.90
71868;DHT22;59738;48.324;14.230;2022-07-04T14:43:40;24.60;63.00
71868;DHT22;59738;48.324;14.230;2022-07-04T14:46:08;24.60;65.10
71868;DHT22;59738;48.324;14.230;2022-07-04T14:48:38;24.50;65.20
71868;DHT22;59738;48.324;14.230;2022-07-04T14:51:06;24.40;64.60
71868;DHT22;59738;48.324;14.230;2022-07-04T14:53:33;24.60;65.30
71868;DHT22;59738;48.324;14.230;2022-07-04T14:56:01;24.60;63.70
71868;DHT22;59738;48.324;14.230;2022-07-04T14:58:30;24.60;63.20
71868;DHT22;59738;48.324;14.230;2022-07-04T15:00:58;24.70;63.60
71868;DHT22;59738;48.324;14.230;2022-07-04T15:03:26;24.90;64.00
71868;DHT22;59738;48.324;14.230;2022-07-04T15:05:55;25.10;60.80
71868;DHT22;59738;48.324;14.230;2022-07-04T15:08:24;25.20;59.80
71868;DHT22;59738;48.324;14.230;2022-07-04T15:10:52;25.30;59.00
71868;DHT22;59738;48.324;14.230;2022-07-04T15:13:20;25.20;60.10
71868;DHT22;59738;48.324;14.230;2022-07-04T15:15:48;25.20;58.50
71868;DHT22;59738;48.324;14.230;2022-07-04T15:18:15;25.40;60.10
71868;DHT22;59738;48.324;14.230;2022-07-04T15:20:43;25.30;58.00
71868;DHT22;59738;48.324;14.230;2022-07-04T15:23:30;25.30;57.40
71868;DHT22;59738;48.324;14.230;2022-07-04T15:26:15;25.40;57.20
71868;DHT22;59738;48.324;14.230;2022-07-04T15:28:42;25.50;56.60
71868;DHT22;59738;48.324;14.230;2022-07-04T15:31:11;25.50;56.60
71868;DHT22;59738;48.324;14.230;2022-07-04T15:33:39;25.50;55.50
71868;DHT22;59738;48.324;14.230;2022-07-04T15:36:07;25.50;54.70
71868;DHT22;59738;48.324;14.230;2022-07-04T15:38:36;25.50;56.40
71868;DHT22;59738;48.324;14.230;2022-07-04T15:41:06;25.20;56.30